Time;durP1;ratioP1;P1;durP2;ratioP2;P2;SDS_P1;SDS_P2;PMS_P1;PMS_P2;Temp;Humidity;BMP_temperature;BMP_pressure;BME280_temperature;BME280_humidity;BME280_pressure;Samples;Min_cycle;Max_cycle;Signal;HPM_P1;HPM_P2
2023/08/17 07:01:22;;;;;;;0.50;0.50;;;19.00;99.90;21.10;101715.00;;;;6141696;22;2133080;-73
2023/08/17 07:03:57;;;;;;;0.13;0.13;;;18.90;99.90;21.60;101739.00;;;;6220478;23;20317;-74
2023/08/17 07:06:24;;;;;;;0.20;0.20;;;18.90;99.90;23.30;101749.00;;;;6247805;23;20181;-74
2023/08/17 07:08:56;;;;;;;0.10;0.10;;;19.30;99.90;23.80;101770.00;;;;6220426;23;20149;-74
2023/08/17 07:11:22;;;;;;;0.28;0.28;;;19.80;99.90;23.50;101752.00;;;;6248202;23;20156;-74
2023/08/17 07:13:51;;;;;;;0.30;0.30;;;19.90;99.90;24.10;101769.00;;;;6220765;23;20233;-72
2023/08/17 07:16:22;;;;;;;0.45;0.45;;;20.10;99.90;23.30;101747.00;;;;6247155;23;20161;-74
2023/08/17 07:18:51;;;;;;;1.05;0.85;;;20.10;99.90;22.70;101754.00;;;;6221356;23;20435;-73
2023/08/17 07:21:17;;;;;;;0.52;0.20;;;19.80;99.90;22.40;101747.00;;;;6247713;23;20220;-74
2023/08/17 07:23:48;;;;;;;0.70;0.70;;;19.50;99.90;22.50;101758.00;;;;6219010;23;20424;-74
2023/08/17 07:26:14;;;;;;;1.17;1.08;;;19.60;99.90;21.90;101758.00;;;;6195527;23;20657;-74
2023/08/17 07:28:48;;;;;;;0.10;0.10;;;19.40;99.90;22.40;101703.00;;;;6220649;23;20192;-74
2023/08/17 07:31:19;;;;;;;0.15;0.15;;;19.20;99.90;22.20;101762.00;;;;6221218;23;20173;-74
2023/08/17 07:34:26;;;;;;;0.25;0.25;;;19.30;99.90;22.20;101715.00;;;;6195405;23;20719;-74
2023/08/17 07:37:00;;;;;;;1.08;0.95;;;19.40;99.90;22.20;101756.00;;;;6192714;23;20168;-74
2023/08/17 07:39:26;;;;;;;0.47;0.47;;;19.50;99.90;22.80;101754.00;;;;6246909;23;20141;-74
2023/08/17 07:42:04;;;;;;;0.50;0.50;;;19.70;99.90;21.80;101752.00;;;;6194805;23;20260;-73
2023/08/17 07:44:34;;;;;;;0.75;0.75;;;19.70;99.90;22.80;101748.00;;;;6220897;23;20581;-73
2023/08/17 07:47:00;;;;;;;0.15;0.13;;;19.60;99.90;22.20;101745.00;;;;6247373;23;20142;-73
2023/08/17 07:49:28;;;;;;;0.10;0.10;;;19.60;99.90;23.90;101769.00;;;;6220519;23;20150;-73
2023/08/17 07:52:00;;;;;;;0.10;0.10;;;20.00;99.90;25.20;101764.00;;;;6220319;23;20146;-74
2023/08/17 07:54:26;;;;;;;1.73;0.90;;;20.70;99.90;23.50;101763.00;;;;6220500;23;20160;-74
2023/08/17 07:57:02;;;;;;;4.80;1.00;;;21.00;99.90;22.10;101746.00;;;;6246744;23;20602;-73
2023/08/17 07:59:34;;;;;;;0.30;0.30;;;20.50;99.90;24.10;101757.00;;;;6221632;23;20563;-74
2023/08/17 08:02:00;;;;;;;0.63;0.63;;;20.50;99.90;22.50;101751.00;;;;6195574;23;20280;-74
2023/08/17 08:04:32;;;;;;;0.20;0.20;;;20.40;99.90;23.40;101748.00;;;;6246618;23;20162;-74
2023/08/17 08:06:58;;;;;;;0.20;0.20;;;20.30;99.90;24.50;101771.00;;;;6220687;23;20184;-73
2023/08/17 08:09:29;;;;;;;0.70;0.57;;;20.60;99.90;24.80;101766.00;;;;6220042;23;20162;-74
2023/08/17 08:11:57;;;;;;;0.50;0.38;;;20.90;99.90;22.70;101753.00;;;;6219764;23;20173;-73
2023/08/17 08:14:23;;;;;;;0.30;0.30;;;20.30;99.90;23.10;101751.00;;;;6220064;23;20225;-73
2023/08/17 08:16:55;;;;;;;0.40;0.40;;;20.20;99.90;22.60;101746.00;;;;6219700;23;20138;-73
2023/08/17 08:19:45;;;;;;;0.20;0.20;;;20.20;99.90;25.20;101766.00;;;;6194356;23;20162;-74
2023/08/17 08:22:20;;;;;;;0.20;0.20;;;20.90;99.90;25.80;101773.00;;;;6219665;23;20583;-73
2023/08/17 08:24:56;;;;;;;0.20;0.20;;;21.50;99.90;26.00;101773.00;;;;6247017;23;20232;-74
2023/08/17 08:27:25;;;;;;;1.65;1.65;;;21.90;99.90;26.60;101779.00;;;;6246986;23;20142;-74
2023/08/17 08:29:53;;;;;;;0.10;0.10;;;22.30;99.90;24.50;101742.00;;;;6220187;23;20179;-74
2023/08/17 08:32:22;;;;;;;0.30;0.30;;;21.80;99.90;25.20;101757.00;;;;6219923;23;20157;-74
2023/08/17 08:34:56;;;;;;;0.10;0.10;;;21.70;99.90;26.50;101780.00;;;;6219588;23;20166;-73
2023/08/17 08:37:25;;;;;;;0.10;0.10;;;22.20;99.90;25.80;101786.00;;;;6246721;23;20146;-75
2023/08/17 08:39:53;;;;;;;0.10;0.10;;;22.40;99.90;25.20;101753.00;;;;6220047;23;20593;-73
2023/08/17 08:42:29;;;;;;;2.05;1.27;;;22.00;99.90;26.70;101772.00;;;;6219457;23;20185;-74
2023/08/17 08:44:55;;;;;;;1.27;0.98;;;22.50;99.90;23.90;101743.00;;;;6194891;23;20267;-74
2023/08/17 08:47:24;;;;;;;5.28;0.85;;;21.80;99.90;25.00;101736.00;;;;6219828;23;20157;-74
2023/08/17 08:50:04;;;;;;;0.43;0.43;;;21.70;99.90;24.50;101690.00;;;;6220057;23;20164;-73
2023/08/17 08:53:01;;;;;;;0.13;0.13;;;21.50;99.90;25.00;101698.00;;;;6194787;23;20173;-74
2023/08/17 08:55:37;;;;;;;0.45;0.45;;;21.70;99.90;24.20;101722.00;;;;6220529;23;20138;-75
2023/08/17 08:58:11;;;;;;;0.52;0.52;;;21.60;99.90;25.20;101727.00;;;;6194669;23;20153;-75
2023/08/17 09:00:38;;;;;;;0.13;0.13;;;21.80;99.90;26.50;101735.00;;;;6219995;23;20252;-75
2023/08/17 09:03:38;;;;;;;3.65;1.52;;;22.40;99.90;24.90;101736.00;;;;6219884;23;20162;-75
2023/08/17 09:06:07;;;;;;;0.60;0.60;;;22.60;99.90;24.80;101717.00;;;;6210834;23;20185;-75
2023/08/17 09:09:03;;;;;;;0.50;0.50;;;22.30;99.90;25.00;101673.00;;;;6219945;23;20601;-75
2023/08/17 09:11:58;;;;;;;0.10;0.10;;;22.10;99.90;26.20;101739.00;;;;6246321;23;20193;-75
2023/08/17 09:15:19;;;;;;;2.90;0.30;;;22.40;99.90;24.70;101710.00;;;;6206520;23;20161;-75
2023/08/17 09:18:25;;;;;;;0.70;0.47;;;21.70;99.90;25.60;101737.00;;;;6219906;23;20161;-74
2023/08/17 09:21:26;;;;;;;0.98;0.98;;;22.00;99.90;26.00;101737.00;;;;6216349;23;20176;-74
2023/08/17 09:24:36;;;;;;;0.65;0.57;;;22.20;99.90;25.80;101735.00;;;;6194973;23;20208;-75
2023/08/17 09:27:42;;;;;;;0.17;0.17;;;22.30;99.90;25.90;101734.00;;;;6193191;23;20165;-73
2023/08/17 09:30:56;;;;;;;1.08;1.08;;;22.40;99.90;27.00;101752.00;;;;6216165;23;20161;-75
2023/08/17 09:33:50;;;;;;;1.10;0.90;;;22.80;99.90;24.90;101718.00;;;;6219049;23;20168;-74
2023/08/17 09:36:42;;;;;;;0.63;0.63;;;22.30;99.90;26.00;101727.00;;;;6207913;23;20185;-74
2023/08/17 09:39:53;;;;;;;0.90;0.47;;;22.40;99.90;25.00;101711.00;;;;6230062;23;20236;-74
2023/08/17 09:42:57;;;;;;;1.25;1.00;;;22.40;99.90;24.60;101713.00;;;;6219928;23;20187;-75
2023/08/17 09:45:59;;;;;;;1.15;0.68;;;22.10;99.90;26.20;101718.00;;;;6218977;23;20158;-75
2023/08/17 09:49:09;;;;;;;0.47;0.45;;;22.30;99.90;26.30;101726.00;;;;6219046;23;20137;-75
2023/08/17 09:52:03;;;;;;;0.30;0.30;;;22.60;99.90;27.00;101688.00;;;;6220273;23;20142;-74
2023/08/17 09:54:50;;;;;;;0.20;0.20;;;22.90;99.90;27.30;101743.00;;;;6245773;23;20160;-73
2023/08/17 09:57:57;;;;;;;0.60;0.60;;;23.80;99.90;28.30;101763.00;;;;6193511;23;20244;-74
2023/08/17 10:00:53;;;;;;;0.10;0.10;;;24.40;99.90;29.10;101777.00;;;;6218877;23;20177;-73
2023/08/17 10:04:02;;;;;;;0.85;0.75;;;24.60;99.90;26.60;101760.00;;;;6194012;23;20188;-75
2023/08/17 10:07:02;;;;;;;0.88;0.88;;;24.10;99.90;23.20;101691.00;;;;6219393;23;20574;-74
2023/08/17 10:10:15;;;;;;;0.38;0.38;;;22.60;99.90;24.80;101703.00;;;;6219147;23;20149;-74
2023/08/17 10:13:30;;;;;;;1.10;0.40;;;22.00;99.90;26.20;101679.00;;;;6207295;23;20176;-75
2023/08/17 10:16:24;;;;;;;1.40;1.30;;;22.60;99.90;25.50;101717.00;;;;6218990;23;20527;-74
2023/08/17 10:20:12;;;;;;;2.53;1.95;;;23.00;99.90;24.80;101699.00;;;;6218846;23;20169;-74
2023/08/17 10:34:06;;;;;;;2.05;1.95;;;22.00;99.90;24.90;101674.00;;;;5110575;27;20601;-73
2023/08/17 10:37:20;;;;;;;2.08;1.98;;;22.30;99.90;25.50;101707.00;;;;5086605;28;20287;-73
2023/08/17 10:40:12;;;;;;;2.00;1.90;;;22.60;99.90;24.80;101703.00;;;;5105912;28;20216;-73
2023/08/17 10:43:11;;;;;;;0.95;0.95;;;22.20;99.90;24.30;101700.00;;;;5089479;28;20211;-73
2023/08/17 10:46:14;;;;;;;0.25;0.25;;;22.00;99.90;24.90;101713.00;;;;5085961;28;20185;-73
2023/08/17 10:49:24;;;;;;;0.32;0.32;;;21.90;99.90;23.70;101680.00;;;;5085145;28;20188;-73
2023/08/17 10:56:18;;;;;;;0.45;0.35;;;21.60;99.90;24.20;101713.00;;;;5065500;28;20191;-73
2023/08/17 10:59:52;;;;;;;0.70;0.70;;;21.50;99.90;25.20;101720.00;;;;5088490;28;20189;-74
2023/08/17 11:02:42;;;;;;;1.70;1.58;;;21.70;99.90;23.90;101669.00;;;;5089560;28;20220;-73
2023/08/17 11:05:37;;;;;;;0.10;0.10;;;21.60;99.90;26.30;101712.00;;;;5071019;28;20547;-74
2023/08/17 11:08:23;;;;;;;2.00;1.80;;;22.10;99.90;25.20;101695.00;;;;5088432;28;20177;-73
2023/08/17 11:11:21;;;;;;;3.50;2.53;;;22.60;99.90;24.00;101692.00;;;;5088447;28;20264;-73
2023/08/17 11:14:15;;;;;;;1.90;1.67;;;22.00;99.90;24.30;101687.00;;;;5080333;28;20689;-74
2023/08/17 11:17:07;;;;;;;0.30;0.30;;;21.90;99.90;24.80;101685.00;;;;5074336;28;20196;-74
2023/08/17 11:19:56;;;;;;;1.00;1.00;;;21.90;99.90;24.90;101685.00;;;;5079976;28;20188;-73
2023/08/17 11:22:49;;;;;;;1.75;0.90;;;22.10;99.90;24.60;101696.00;;;;5089390;28;20582;-73
2023/08/17 11:25:38;;;;;;;0.40;0.40;;;22.10;99.90;25.50;101687.00;;;;5083909;28;20242;-73
2023/08/17 11:28:10;;;;;;;0.70;0.70;;;22.00;99.90;26.00;101699.00;;;;5089200;28;20184;-74
2023/08/17 11:31:05;;;;;;;3.10;0.77;;;22.70;99.90;25.40;101663.00;;;;5105149;28;20543;-73
2023/08/17 11:33:42;;;;;;;0.80;0.73;;;22.30;99.90;24.20;101677.00;;;;5088570;28;20198;-73
2023/08/17 11:36:30;;;;;;;5.05;2.78;;;22.10;99.90;24.00;101697.00;;;;5082594;28;20212;-74
2023/08/17 11:39:20;;;;;;;5.35;2.97;;;21.80;99.90;24.20;101699.00;;;;5086185;28;20584;-73
2023/08/17 11:42:06;;;;;;;1.15;1.15;;;21.80;99.90;25.80;101698.00;;;;5084367;28;20197;-73
2023/08/17 11:44:53;;;;;;;0.57;0.57;;;22.30;99.90;25.70;101656.00;;;;5075487;28;20180;-74
2023/08/17 11:47:43;;;;;;;0.20;0.20;;;22.40;99.90;26.20;101699.00;;;;5066037;28;20583;-73
2023/08/17 11:50:40;;;;;;;0.50;0.50;;;22.60;99.90;26.30;101710.00;;;;5051430;28;20198;-74
2023/08/17 11:53:35;;;;;;;0.13;0.13;;;23.10;99.90;27.60;101720.00;;;;5069636;28;20220;-73
2023/08/17 11:56:21;;;;;;;1.35;1.25;;;23.30;99.90;26.00;101705.00;;;;5074243;28;20189;-73
2023/08/17 11:59:33;;;;;;;0.30;0.30;;;23.20;99.90;25.40;101688.00;;;;5066054;28;20189;-73
2023/08/17 12:02:17;;;;;;;0.65;0.65;;;22.60;99.90;25.40;101702.00;;;;5071444;28;20279;-73
2023/08/17 12:05:11;;;;;;;0.28;0.28;;;22.60;99.90;24.30;101680.00;;;;5074446;28;20272;-74
2023/08/17 12:08:04;;;;;;;0.57;0.57;;;22.10;99.90;25.50;101702.00;;;;5074048;28;20186;-74
2023/08/17 12:11:18;;;;;;;0.20;0.20;;;22.30;99.90;26.50;101706.00;;;;5074056;28;20186;-73
2023/08/17 12:14:12;;;;;;;2.40;1.55;;;22.70;99.90;24.90;101687.00;;;;5067291;28;20562;-73
2023/08/17 12:16:52;;;;;;;1.60;0.70;;;22.50;99.90;25.60;101695.00;;;;5074079;28;20189;-73
2023/08/17 12:19:53;;;;;;;0.63;0.57;;;22.40;99.90;26.50;101707.00;;;;5074194;28;20185;-73
2023/08/17 12:22:44;;;;;;;0.40;0.40;;;22.50;99.90;26.40;101676.00;;;;5066388;28;20190;-75
2023/08/17 12:25:35;;;;;;;0.35;0.35;;;22.90;99.90;26.00;101651.00;;;;5064280;28;20276;-73
2023/08/17 12:28:19;;;;;;;0.10;0.10;;;22.70;99.90;25.10;101688.00;;;;5073769;28;20284;-73
2023/08/17 12:31:10;;;;;;;1.17;1.08;;;22.30;99.90;25.70;101699.00;;;;5056626;28;20195;-73
2023/08/17 12:34:06;;;;;;;0.77;0.77;;;22.60;99.90;25.10;101683.00;;;;5056749;28;20673;-74
2023/08/17 12:36:57;;;;;;;0.32;0.32;;;22.30;99.90;26.20;101703.00;;;;5064497;28;20189;-74
2023/08/17 12:39:51;;;;;;;1.08;1.08;;;22.50;99.90;25.90;101695.00;;;;5074833;28;20185;-73
2023/08/17 12:42:42;;;;;;;1.92;1.83;;;22.80;99.90;26.10;101696.00;;;;5074280;28;20200;-73
2023/08/17 12:45:33;;;;;;;1.65;0.82;;;22.80;99.90;25.90;101649.00;;;;5048471;28;20198;-74
2023/08/17 12:48:16;;;;;;;18.98;1.88;;;22.70;99.90;25.90;101682.00;;;;5070813;28;20177;-73
2023/08/17 12:51:03;;;;;;;0.57;0.57;;;22.80;99.90;25.60;101678.00;;;;5073772;28;20276;-74
2023/08/17 12:53:57;;;;;;;0.63;0.63;;;22.40;99.90;24.60;101681.00;;;;5073519;28;20193;-74
2023/08/17 12:56:43;;;;;;;3.30;1.00;;;22.10;99.90;25.80;101692.00;;;;5068354;28;20619;-73
2023/08/17 12:59:35;;;;;;;0.20;0.20;;;22.40;99.90;25.80;101654.00;;;;5072819;28;20209;-73
2023/08/17 13:02:22;;;;;;;1.10;0.65;;;22.50;99.90;26.30;101679.00;;;;5072623;28;20193;-74
2023/08/17 13:05:05;;;;;;;0.47;0.47;;;22.70;99.90;26.00;101687.00;;;;5065900;28;20570;-73
2023/08/17 13:08:10;;;;;;;1.98;1.10;;;22.80;99.90;27.10;101690.00;;;;5068771;28;20268;-73
2023/08/17 13:11:14;;;;;;;1.92;1.80;;;23.00;99.90;25.40;101663.00;;;;5072532;28;20191;-73
2023/08/17 13:14:03;;;;;;;0.25;0.25;;;22.90;99.90;25.30;101671.00;;;;5073183;28;20663;-73
2023/08/17 13:16:50;;;;;;;0.10;0.10;;;22.50;99.90;25.70;101681.00;;;;5072529;28;20189;-73
2023/08/17 13:19:35;;;;;;;0.10;0.10;;;22.40;99.90;26.50;101685.00;;;;5064624;28;20178;-74
2023/08/17 13:22:29;;;;;;;1.80;1.15;;;22.50;99.90;24.90;101621.00;;;;5084337;28;20210;-73
2023/08/17 13:25:27;;;;;;;0.20;0.20;;;22.60;99.90;26.10;101681.00;;;;5072397;28;20182;-73
2023/08/17 13:28:16;;;;;;;4.72;0.75;;;22.40;99.90;25.40;101673.00;;;;5065210;28;20205;-72
2023/08/17 13:31:13;;;;;;;1.08;1.00;;;22.50;99.90;25.70;101682.00;;;;4995444;28;20206;-72
2023/08/17 13:34:00;;;;;;;0.68;0.68;;;22.40;99.90;24.60;101639.00;;;;5080944;28;20206;-73
2023/08/17 13:36:46;;;;;;;0.25;0.25;;;22.00;99.90;26.30;101687.00;;;;5067277;28;20555;-73
2023/08/17 13:39:37;;;;;;;0.35;0.35;;;22.30;99.90;25.10;101669.00;;;;5072506;28;20234;-73
2023/08/17 13:42:28;;;;;;;1.15;1.05;;;22.50;99.90;25.10;101630.00;;;;5071836;28;20643;-73
2023/08/17 13:45:17;;;;;;;0.88;0.88;;;22.10;99.90;23.50;101643.00;;;;5065258;28;20670;-72
2023/08/17 13:48:21;;;;;;;0.10;0.10;;;21.70;99.90;24.90;101665.00;;;;5062295;28;20703;-73
2023/08/17 13:51:12;;;;;;;0.32;0.32;;;21.80;99.90;26.10;101619.00;;;;5053670;28;20678;-73
2023/08/17 13:53:58;;;;;;;0.47;0.47;;;22.20;99.90;25.30;101660.00;;;;5064422;28;20261;-73
2023/08/17 13:56:55;;;;;;;0.20;0.20;;;22.20;99.90;26.70;101660.00;;;;5073156;28;20636;-73
2023/08/17 13:59:41;;;;;;;5.30;2.30;;;22.60;99.90;26.00;101662.00;;;;5071129;28;20463;-73
2023/08/17 14:02:21;;;;;;;1.55;1.45;;;22.60;99.90;24.80;101633.00;;;;5083515;28;20552;-72
2023/08/17 14:05:30;;;;;;;2.30;1.13;;;22.50;99.90;25.80;101658.00;;;;5072017;28;20275;-73
2023/08/17 14:08:17;;;;;;;0.50;0.50;;;22.70;99.90;24.90;101635.00;;;;5072244;28;20623;-73
2023/08/17 14:10:53;;;;;;;1.20;1.17;;;22.50;99.90;24.90;101644.00;;;;5072220;28;20646;-72
2023/08/17 14:13:54;;;;;;;0.40;0.40;;;22.20;99.90;26.70;101624.00;;;;5072980;28;20326;-72
2023/08/17 14:16:27;;;;;;;0.85;0.80;;;22.90;99.90;27.90;101633.00;;;;5072964;28;20178;-72
2023/08/17 14:19:13;;;;;;;0.82;0.82;;;23.50;99.90;26.50;101669.00;;;;5071787;28;20193;-71
2023/08/17 14:21:48;;;;;;;2.47;1.30;;;23.70;99.90;26.00;101641.00;;;;5064210;28;20279;-71
2023/08/17 14:24:37;;;;;;;0.63;0.63;;;23.30;99.90;26.10;101640.00;;;;5072493;28;20728;-71
2023/08/17 14:27:40;;;;;;;1.30;1.05;;;23.00;99.90;25.80;101598.00;;;;5069442;28;20718;-71
2023/08/17 14:30:07;;;;;;;1.88;1.77;;;22.90;99.90;24.80;101582.00;;;;5066329;28;20188;-70
2023/08/17 14:32:40;;;;;;;1.00;1.00;;;22.80;99.90;25.70;101618.00;;;;5072523;28;20213;-70
2023/08/17 14:35:09;;;;;;;0.20;0.20;;;22.60;99.90;27.10;101647.00;;;;5073009;28;20651;-71
2023/08/17 14:37:45;;;;;;;4.22;2.60;;;23.00;99.90;25.70;101628.00;;;;5071425;28;20178;-70
2023/08/17 14:40:32;;;;;;;0.60;0.50;;;23.10;99.90;27.10;101630.00;;;;5071903;28;20238;-70
2023/08/17 14:43:05;;;;;;;1.10;0.75;;;23.40;99.90;25.70;101616.00;;;;5072155;28;20250;-70
2023/08/17 14:45:40;;;;;;;0.80;0.80;;;23.10;99.90;26.50;101594.00;;;;5072544;28;20181;-70
2023/08/17 14:48:09;;;;;;;2.38;1.60;;;22.90;99.90;25.90;101605.00;;;;5071887;28;20231;-71
2023/08/17 14:53:28;;;;;;;1.67;1.58;;;22.70;99.90;27.00;101625.00;;;;5066726;28;20228;-70
2023/08/17 14:55:54;;;;;;;0.10;0.10;;;23.10;99.90;27.40;101624.00;;;;5055168;28;20531;-71
2023/08/17 14:58:27;;;;;;;1.20;0.50;;;23.40;99.90;25.90;101569.00;;;;5071638;28;20185;-71
2023/08/17 15:01:01;;;;;;;1.00;1.00;;;23.20;99.90;27.30;101619.00;;;;5069691;28;20647;-71
2023/08/17 15:03:39;;;;;;;0.85;0.85;;;23.20;99.90;27.30;101618.00;;;;5071670;28;20197;-71
2023/08/17 15:06:09;;;;;;;1.02;1.00;;;23.50;99.90;25.80;101587.00;;;;5059428;28;20251;-70
2023/08/17 15:08:39;;;;;;;0.70;0.63;;;23.10;99.90;26.00;101599.00;;;;5071308;28;20214;-70
2023/08/17 15:11:14;;;;;;;3.55;2.25;;;23.00;99.90;26.40;101594.00;;;;5072285;28;20185;-70
2023/08/17 15:13:48;;;;;;;2.05;1.95;;;23.20;99.90;25.20;101535.00;;;;5072701;28;20177;-70
2023/08/17 15:16:25;;;;;;;1.23;1.23;;;22.90;99.90;26.30;101591.00;;;;5071338;28;20540;-70
2023/08/17 15:18:58;;;;;;;0.65;0.65;;;22.90;99.90;26.00;101575.00;;;;5061561;28;20593;-70
2023/08/17 15:21:31;;;;;;;2.30;2.17;;;22.80;99.90;25.40;101590.00;;;;5069787;28;20185;-69
2023/08/17 15:24:00;;;;;;;0.20;0.20;;;22.70;99.90;27.40;101597.00;;;;5066000;28;20192;-70
2023/08/17 15:26:28;;;;;;;0.88;0.75;;;23.20;99.90;26.00;101571.00;;;;5075869;28;20189;-71
2023/08/17 15:28:58;;;;;;;0.88;0.88;;;23.20;99.90;27.10;101582.00;;;;5070109;28;20200;-70
2023/08/17 15:31:46;;;;;;;0.98;0.98;;;23.20;99.90;27.30;101593.00;;;;5074403;28;20283;-70
2023/08/17 15:34:30;;;;;;;1.38;1.38;;;23.50;99.90;25.40;101568.00;;;;5063444;28;20560;-70
2023/08/17 15:37:13;;;;;;;5.47;2.35;;;22.90;99.90;25.10;101573.00;;;;5074325;28;20268;-70
2023/08/17 15:39:46;;;;;;;3.15;2.33;;;22.50;99.90;25.00;101537.00;;;;5067826;28;20193;-70
2023/08/17 15:42:15;;;;;;;1.42;1.33;;;22.50;99.90;25.30;101532.00;;;;5091529;28;20181;-70
2023/08/17 15:44:41;;;;;;;0.63;0.57;;;22.40;99.90;25.30;101574.00;;;;5075483;28;20188;-69
2023/08/17 15:47:09;;;;;;;4.38;2.20;;;22.60;99.90;24.80;101553.00;;;;5091706;28;20196;-70
2023/08/17 15:49:35;;;;;;;5.30;4.90;;;22.40;99.90;24.60;101557.00;;;;5074525;28;20190;-70
2023/08/17 15:52:01;;;;;;;0.85;0.85;;;22.30;99.90;25.30;101568.00;;;;5073687;28;20201;-70
2023/08/17 15:54:36;;;;;;;0.68;0.50;;;22.30;99.90;25.10;101568.00;;;;5074486;28;20185;-70
2023/08/17 15:57:05;;;;;;;0.15;0.15;;;22.30;99.90;25.60;101573.00;;;;5088042;28;20643;-70
2023/08/17 15:59:31;;;;;;;1.75;0.63;;;22.40;99.90;24.60;101555.00;;;;5072297;28;20192;-70
2023/08/17 16:01:57;;;;;;;4.10;3.47;;;22.10;99.90;23.70;101509.00;;;;5074015;28;20186;-69
2023/08/17 16:04:30;;;;;;;4.85;3.17;;;21.90;99.90;25.10;101558.00;;;;5074331;28;20181;-70
2023/08/17 16:07:03;;;;;;;7.57;5.18;;;22.10;99.90;24.10;101546.00;;;;5060651;28;20546;-69
2023/08/17 16:09:49;;;;;;;3.05;0.93;;;21.90;99.90;25.40;101538.00;;;;5072715;28;20238;-70
2023/08/17 16:12:15;;;;;;;1.23;1.23;;;22.10;99.90;25.50;101545.00;;;;5072296;28;20222;-70
2023/08/17 16:14:44;;;;;;;0.85;0.85;;;22.30;99.90;24.50;101528.00;;;;5074090;28;20539;-70
2023/08/17 16:17:33;;;;;;;0.13;0.13;;;22.00;99.90;26.40;101553.00;;;;5075288;28;20213;-70
2023/08/17 16:20:23;;;;;;;6.43;2.72;;;22.30;99.90;25.30;101511.00;;;;5067477;28;20189;-70
2023/08/17 16:22:56;;;;;;;2.92;2.63;;;22.30;99.90;24.70;101522.00;;;;5074050;28;20196;-70
2023/08/17 16:25:34;;;;;;;2.17;1.40;;;22.30;99.90;24.60;101520.00;;;;5073789;28;20197;-69
2023/08/17 16:28:03;;;;;;;0.38;0.30;;;21.80;99.90;25.90;101503.00;;;;5073464;28;20178;-70
2023/08/17 16:30:34;;;;;;;1.52;1.42;;;22.20;99.90;24.90;101521.00;;;;5073946;28;20557;-70
2023/08/17 16:32:59;;;;;;;0.20;0.20;;;22.00;99.90;25.90;101530.00;;;;5073387;28;20220;-70
2023/08/17 16:36:05;;;;;;;0.10;0.10;;;22.20;99.90;25.30;101508.00;;;;5074865;28;20189;-70
2023/08/17 16:38:56;;;;;;;0.63;0.40;;;22.20;99.90;26.50;101535.00;;;;5074466;28;20553;-70
2023/08/17 16:42:07;;;;;;;1.38;1.30;;;22.50;99.90;26.40;101530.00;;;;5074431;28;20181;-70
2023/08/17 16:45:08;;;;;;;2.92;2.70;;;22.40;99.90;25.70;101524.00;;;;5073381;28;20291;-68
2023/08/17 16:48:02;;;;;;;1.55;1.45;;;22.40;99.90;26.10;101520.00;;;;5064976;28;20717;-70
2023/08/17 16:51:04;;;;;;;1.42;1.33;;;22.50;99.90;25.80;101527.00;;;;5073288;28;20216;-70
2023/08/17 16:54:25;;;;;;;0.95;0.80;;;22.30;99.90;25.70;101532.00;;;;5072991;28;20225;-70
2023/08/17 16:57:09;;;;;;;1.38;1.38;;;22.40;99.90;25.30;101522.00;;;;5062579;28;20186;-71
2023/08/17 17:00:13;;;;;;;1.33;1.25;;;22.00;99.90;26.30;101535.00;;;;5073177;28;20181;-70
2023/08/17 17:03:16;;;;;;;1.20;1.08;;;22.40;99.90;26.60;101530.00;;;;5073817;28;20185;-70
2023/08/17 17:06:05;;;;;;;0.20;0.20;;;22.40;99.90;26.40;101519.00;;;;5056309;28;20619;-70
2023/08/17 17:09:06;;;;;;;0.20;0.20;;;22.50;99.90;27.00;101536.00;;;;5071980;28;20280;-71
2023/08/17 17:12:00;;;;;;;2.97;2.72;;;22.70;99.90;24.10;101506.00;;;;5065667;28;20275;-70
2023/08/17 17:15:14;;;;;;;1.27;1.13;;;22.00;99.90;25.10;101533.00;;;;5061302;28;20254;-71
2023/08/17 17:18:05;;;;;;;7.25;1.48;;;21.80;99.90;24.30;101517.00;;;;5070953;28;20601;-70
2023/08/17 17:20:49;;;;;;;3.00;2.08;;;21.50;99.90;23.60;101498.00;;;;5073936;28;20651;-70
2023/08/17 17:23:50;;;;;;;3.58;3.25;;;21.10;99.90;23.70;101471.00;;;;5060280;28;20197;-70
2023/08/17 17:26:38;;;;;;;3.17;2.92;;;21.10;99.90;23.70;101503.00;;;;5072369;28;20180;-70
2023/08/17 17:29:37;;;;;;;0.50;0.50;;;21.10;99.90;23.70;101515.00;;;;5072515;28;20205;-70
2023/08/17 17:32:25;;;;;;;0.52;0.52;;;21.10;99.90;23.80;101514.00;;;;5070071;28;20718;-70
2023/08/17 17:35:10;;;;;;;5.07;4.35;;;21.10;99.90;23.60;101518.00;;;;5073289;28;20182;-70
2023/08/17 17:38:01;;;;;;;3.88;1.70;;;21.10;99.90;24.00;101520.00;;;;5072488;28;20239;-69
2023/08/17 17:41:03;;;;;;;4.38;1.85;;;21.10;99.90;24.10;101516.00;;;;5073426;28;20273;-70
2023/08/17 17:44:04;;;;;;;4.75;2.35;;;21.20;99.90;23.80;101511.00;;;;5069869;28;20192;-70
2023/08/17 17:47:08;;;;;;;0.47;0.47;;;21.00;99.90;25.30;101522.00;;;;5069070;28;20199;-70
2023/08/17 17:50:09;;;;;;;2.28;2.15;;;21.30;99.90;25.70;101539.00;;;;5067022;28;20217;-71
2023/08/17 17:52:55;;;;;;;1.98;1.38;;;21.70;99.90;24.00;101519.00;;;;5073048;28;20231;-70
2023/08/17 17:55:59;;;;;;;6.70;6.05;;;21.40;99.90;22.50;101502.00;;;;5072080;28;20189;-70
2023/08/17 17:58:55;;;;;;;5.35;4.15;;;20.90;99.90;22.60;101482.00;;;;5072153;28;20527;-70
2023/08/17 18:01:41;;;;;;;1.58;1.48;;;20.50;99.90;24.10;101498.00;;;;5074656;28;20197;-70
2023/08/17 18:04:37;;;;;;;0.65;0.30;;;20.80;99.90;25.50;101488.00;;;;5067027;28;20252;-70
2023/08/17 18:07:40;;;;;;;0.47;0.47;;;21.20;99.90;24.70;101485.00;;;;5057236;28;20197;-70
2023/08/17 18:10:29;;;;;;;7.45;2.65;;;21.50;99.90;24.10;101507.00;;;;5072712;28;20185;-70
2023/08/17 18:13:21;;;;;;;0.20;0.20;;;21.20;99.90;24.60;101513.00;;;;5071960;28;20292;-70
2023/08/17 18:16:08;;;;;;;3.30;2.53;;;21.10;99.90;23.30;101502.00;;;;5064717;28;20189;-70
2023/08/17 18:19:04;;;;;;;0.93;0.60;;;21.10;99.90;24.40;101515.00;;;;5072145;28;20200;-70
2023/08/17 18:22:05;;;;;;;0.40;0.40;;;21.20;99.90;25.70;101526.00;;;;5059951;28;20338;-70
2023/08/17 18:25:07;;;;;;;1.58;1.48;;;21.40;99.90;25.90;101536.00;;;;5054945;28;20185;-70
2023/08/17 18:27:56;;;;;;;0.10;0.10;;;21.90;99.90;25.50;101497.00;;;;5071762;28;20173;-70
2023/08/17 18:30:46;;;;;;;0.40;0.40;;;21.70;99.90;25.70;101546.00;;;;5071218;28;20591;-70
2023/08/17 18:33:42;;;;;;;0.20;0.20;;;21.90;99.90;25.90;101547.00;;;;5073050;28;20675;-70
2023/08/17 18:36:31;;;;;;;0.20;0.20;;;21.90;99.90;25.10;101523.00;;;;5070282;28;20181;-70
2023/08/17 18:39:22;;;;;;;0.10;0.10;;;21.40;99.90;26.20;101547.00;;;;5071568;28;20186;-69
2023/08/17 18:42:14;;;;;;;0.50;0.50;;;21.70;99.90;25.80;101542.00;;;;5054689;28;20196;-70
2023/08/17 18:45:19;;;;;;;0.10;0.10;;;21.80;99.90;26.00;101552.00;;;;5071280;28;20181;-70
2023/08/17 18:48:23;;;;;;;1.15;1.15;;;22.10;99.90;25.60;101544.00;;;;5071347;28;20264;-70
2023/08/17 18:51:09;;;;;;;0.30;0.30;;;22.00;99.90;26.30;101555.00;;;;5084019;28;20181;-70
2023/08/17 18:53:57;;;;;;;0.10;0.10;;;22.00;99.90;26.30;101540.00;;;;5062367;28;20217;-69
2023/08/17 18:57:01;;;;;;;0.40;0.40;;;22.00;99.90;25.90;101559.00;;;;5055748;28;20190;-70
2023/08/17 18:59:46;;;;;;;0.20;0.20;;;22.00;99.90;25.90;101552.00;;;;5075003;28;20334;-70
2023/08/17 19:02:43;;;;;;;1.30;1.20;;;21.90;99.90;24.10;101548.00;;;;5074331;28;20193;-70
2023/08/17 19:05:47;;;;;;;0.40;0.40;;;21.30;99.90;24.80;101540.00;;;;5075329;28;20638;-70
2023/08/17 19:08:48;;;;;;;0.10;0.10;;;21.20;99.90;25.20;101563.00;;;;5091012;28;20181;-70
2023/08/17 19:11:34;;;;;;;0.85;0.85;;;21.40;99.90;24.90;101552.00;;;;5072496;28;20536;-70
2023/08/17 19:14:25;;;;;;;1.10;1.10;;;21.30;99.90;24.60;101553.00;;;;5060041;28;20231;-70
2023/08/17 19:17:31;;;;;;;1.58;1.48;;;21.30;99.90;25.00;101569.00;;;;5062729;28;20658;-70
2023/08/17 19:20:22;;;;;;;0.30;0.30;;;21.30;99.90;24.20;101556.00;;;;5058034;28;20186;-70
2023/08/17 19:23:12;;;;;;;0.60;0.60;;;21.00;99.90;24.70;101559.00;;;;5075730;28;20190;-69
2023/08/17 19:26:13;;;;;;;0.22;0.22;;;21.30;99.90;24.90;101570.00;;;;5073961;28;20173;-69
2023/08/17 19:29:06;;;;;;;0.20;0.20;;;21.30;99.90;25.90;101585.00;;;;5075023;28;20227;-71
2023/08/17 19:31:54;;;;;;;1.85;1.75;;;21.60;99.90;24.70;101578.00;;;;5074116;28;20196;-70